Time,TemperatureF,DewpointF,PressureIn,WindDirection,WindDirectionDegrees,WindSpeedMPH,WindSpeedGustMPH,Humidity,HourlyPrecipIn,Conditions,Clouds,dailyrainin,SoftwareType,DateUTC
2013-02-24 00:00:00,33.3,32.8,29.17,North,0,0.0,0.0,98,0.00,,,0.00,VWS V14.01,2013-02-24 08:00:00,
2013-02-24 00:04:00,33.1,32.6,29.17,SSW,202,0.0,0.0,98,0.00,,-RA,0.00,VWS V14.01,2013-02-24 08:04:00,
2013-02-24 00:09:00,33.1,32.6,29.17,West,270,0.0,0.0,98,0.00,,-RA,0.00,VWS V14.01,2013-02-24 08:09:00,
2013-02-24 00:14:00,33.1,32.6,29.17,NNE,22,0.0,0.0,98,0.00,,-RA,0.00,VWS V14.01,2013-02-24 08:14:00,
2013-02-24 00:19:00,33.1,32.6,29.17,NNE,22,0.0,0.0,98,0.00,,-RA,0.00,VWS V14.01,2013-02-24 08:19:00,
2013-02-24 00:24:00,33.3,32.8,29.17,NNE,22,0.0,0.0,98,0.00,,-RA,0.00,VWS V14.01,2013-02-24 08:24:00,
2013-02-24 00:29:00,33.3,32.8,29.17,North,0,0.0,0.0,98,0.00,,-RA,0.00,VWS V14.01,2013-02-24 08:29:00,
2013-02-24 00:30:00,33.3,32.8,29.17,East,90,0.0,0.0,98,0.00,,,0.00,VWS V14.01,2013-02-24 08:30:00,
2013-02-24 00:34:00,33.3,32.8,29.17,North,0,0.0,0.0,98,0.00,,-RA,0.00,VWS V14.01,2013-02-24 08:34:00,
2013-02-24 00:39:00,33.3,32.8,29.17,North,0,0.0,0.0,98,0.00,,-RA,0.00,VWS V14.01,2013-02-24 08:39:00,
2013-02-24 00:44:00,33.3,32.8,29.17,North,0,0.0,0.0,98,0.00,,-RA,0.00,VWS V14.01,2013-02-24 08:44:00,
2013-02-24 00:49:00,33.1,32.6,29.17,North,0,0.0,0.0,98,0.00,,-RA,0.00,VWS V14.01,2013-02-24 08:49:00,
2013-02-24 00:54:00,33.1,32.6,29.17,North,0,0.0,0.0,98,0.00,,-RA,0.00,VWS V14.01,2013-02-24 08:54:00,
2013-02-24 00:59:00,33.3,32.8,29.17,North,0,0.0,0.0,98,0.00,,-RA,0.00,VWS V14.01,2013-02-24 08:59:00,
2013-02-24 01:00:00,33.3,32.8,29.17,South,180,0.0,0.0,98,0.00,,,0.00,VWS V14.01,2013-02-24 09:00:00,
2013-02-24 01:04:00,33.3,32.8,29.17,North,0,0.0,0.0,98,0.00,,OVC034,0.00,VWS V14.01,2013-02-24 09:04:00,
2013-02-24 01:09:00,33.1,32.6,29.17,North,0,0.0,0.0,98,0.00,,OVC034,0.00,VWS V14.01,2013-02-24 09:09:00,
2013-02-24 01:14:00,33.3,32.8,29.17,North,0,0.0,0.0,98,0.00,,OVC034,0.00,VWS V14.01,2013-02-24 09:14:00,
2013-02-24 01:19:00,33.1,32.6,29.17,East,90,0.0,0.0,98,0.00,,OVC034,0.00,VWS V14.01,2013-02-24 09:19:00,
2013-02-24 01:24:00,33.1,32.6,29.17,East,90,0.0,0.0,98,0.00,,OVC034,0.00,VWS V14.01,2013-02-24 09:24:00,
2013-02-24 01:29:00,33.3,32.8,29.17,East,90,0.0,0.0,98,0.00,,OVC034,0.00,VWS V14.01,2013-02-24 09:29:00,
2013-02-24 01:30:00,33.4,32.9,29.17,SE,135,0.0,0.0,98,0.00,,,0.00,VWS V14.01,2013-02-24 09:30:00,
2013-02-24 01:34:00,33.3,32.8,29.17,East,90,0.0,0.0,98,0.00,,OVC034,0.00,VWS V14.01,2013-02-24 09:34:00,
2013-02-24 01:39:00,33.3,32.8,29.17,East,90,0.0,0.0,98,0.00,,OVC034,0.00,VWS V14.01,2013-02-24 09:39:00,
2013-02-24 01:44:00,33.3,32.8,29.17,NE,45,0.0,0.0,98,0.00,,OVC034,0.00,VWS V14.01,2013-02-24 09:44:00,
2013-02-24 01:49:00,33.3,32.8,29.17,NE,45,0.0,0.0,98,0.00,,OVC034,0.00,VWS V14.01,2013-02-24 09:49:00,
2013-02-24 01:54:00,33.3,32.8,29.17,ESE,112,0.0,0.0,98,0.00,,OVC034,0.00,VWS V14.01,2013-02-24 09:54:00,
2013-02-24 01:59:00,33.3,32.8,29.17,South,180,0.0,0.0,98,0.00,,OVC034,0.00,VWS V14.01,2013-02-24 09:59:00,
2013-02-24 02:00:00,33.6,33.1,29.15,South,180,0.0,0.0,98,0.00,,,0.00,VWS V14.01,2013-02-24 10:00:00,
2013-02-24 02:04:00,33.3,32.8,29.17,South,180,0.0,0.0,98,0.00,,OVC055,0.00,VWS V14.01,2013-02-24 10:04:00,
2013-02-24 02:09:00,33.3,32.8,29.14,South,180,0.0,0.0,98,0.00,,OVC055,0.00,VWS V14.01,2013-02-24 10:09:00,
2013-02-24 02:14:00,33.3,32.8,29.14,West,270,0.0,0.0,98,0.00,,OVC055,0.00,VWS V14.01,2013-02-24 10:14:00,
2013-02-24 02:19:00,33.3,32.8,29.14,WNW,292,0.0,0.0,98,0.00,,OVC055,0.00,VWS V14.01,2013-02-24 10:19:00,
2013-02-24 02:24:00,33.4,32.9,29.17,SSE,158,0.0,0.0,98,0.00,,OVC055,0.00,VWS V14.01,2013-02-24 10:24:00,
2013-02-24 02:29:00,33.4,32.9,29.17,SE,135,0.0,0.0,98,0.00,,OVC055,0.00,VWS V14.01,2013-02-24 10:29:00,
2013-02-24 02:30:00,33.6,33.1,29.15,South,180,0.0,0.0,98,0.00,,,0.00,VWS V14.01,2013-02-24 10:30:00,
2013-02-24 02:34:00,33.4,32.9,29.17,SE,135,0.0,0.0,98,0.00,,OVC055,0.00,VWS V14.01,2013-02-24 10:34:00,
2013-02-24 02:39:00,33.4,32.9,29.14,SE,135,0.0,0.0,98,0.00,,OVC055,0.00,VWS V14.01,2013-02-24 10:39:00,
2013-02-24 02:44:00,33.4,32.9,29.14,South,180,0.0,0.0,98,0.00,,OVC055,0.00,VWS V14.01,2013-02-24 10:44:00,
2013-02-24 02:49:00,33.4,32.9,29.14,South,180,0.0,0.0,98,0.00,,OVC055,0.00,VWS V14.01,2013-02-24 10:49:00,
2013-02-24 02:54:00,33.4,32.9,29.14,South,180,0.0,0.0,98,0.00,,OVC055,0.00,VWS V14.01,2013-02-24 10:54:00,
2013-02-24 02:59:00,33.6,33.1,29.14,South,180,0.0,0.0,98,0.00,,OVC055,0.00,VWS V14.01,2013-02-24 10:59:00,
2013-02-24 03:00:00,33.6,33.1,29.15,ESE,112,0.0,0.0,98,0.00,,,0.00,VWS V14.01,2013-02-24 11:00:00,
2013-02-24 03:04:00,33.4,32.9,29.14,SE,135,0.0,0.0,98,0.00,,OVC055,0.00,VWS V14.01,2013-02-24 11:04:00,
2013-02-24 03:09:00,33.4,32.9,29.14,SE,135,0.0,0.0,98,0.00,,OVC055,0.00,VWS V14.01,2013-02-24 11:09:00,
2013-02-24 03:14:00,33.4,32.9,29.14,SE,135,0.0,0.0,98,0.00,,OVC055,0.00,VWS V14.01,2013-02-24 11:14:00,
2013-02-24 03:19:00,33.4,32.9,29.14,SSW,202,0.0,0.0,98,0.00,,OVC055,0.00,VWS V14.01,2013-02-24 11:19:00,
2013-02-24 03:24:00,33.4,32.9,29.14,SSW,202,0.0,0.0,98,0.00,,OVC055,0.00,VWS V14.01,2013-02-24 11:24:00,
2013-02-24 03:29:00,33.4,32.9,29.14,South,180,0.0,0.0,98,0.00,,OVC055,0.00,VWS V14.01,2013-02-24 11:29:00,
2013-02-24 03:30:00,33.6,33.1,29.11,North,0,0.0,0.0,98,0.00,,,0.00,VWS V14.01,2013-02-24 11:30:00,
2013-02-24 03:34:00,33.6,33.1,29.14,SSE,158,0.0,0.0,98,0.00,,OVC055,0.00,VWS V14.01,2013-02-24 11:34:00,
2013-02-24 03:39:00,33.6,33.1,29.14,NNE,22,0.0,0.0,98,0.00,,OVC055,0.00,VWS V14.01,2013-02-24 11:39:00,
2013-02-24 03:44:00,33.6,33.1,29.14,NNE,22,0.0,0.0,98,0.00,,OVC055,0.00,VWS V14.01,2013-02-24 11:44:00,
2013-02-24 03:49:00,33.6,33.1,29.14,North,0,0.0,0.0,98,0.00,,OVC055,0.00,VWS V14.01,2013-02-24 11:49:00,
2013-02-24 03:54:00,33.6,33.1,29.14,North,0,0.0,0.0,98,0.00,,OVC055,0.00,VWS V14.01,2013-02-24 11:54:00,
2013-02-24 03:58:00,33.6,33.1,29.14,ESE,112,0.0,0.0,98,0.00,,OVC055,0.00,VWS V14.01,2013-02-24 11:58:00,
2013-02-24 04:00:00,33.6,33.1,29.11,South,180,0.0,0.0,98,0.00,,,0.00,VWS V14.01,2013-02-24 12:00:00,
2013-02-24 04:03:00,33.6,33.1,29.14,ESE,112,0.0,0.0,98,0.00,,OVC055,0.00,VWS V14.01,2013-02-24 12:03:00,
2013-02-24 04:08:00,33.6,33.1,29.12,ENE,68,0.0,0.0,98,0.00,,OVC055,0.00,VWS V14.01,2013-02-24 12:08:00,
2013-02-24 04:13:00,33.6,33.1,29.12,ENE,68,0.0,0.0,98,0.00,,OVC055,0.00,VWS V14.01,2013-02-24 12:13:00,
2013-02-24 04:18:00,33.6,33.1,29.12,SSW,202,0.0,0.0,98,0.00,,OVC055,0.00,VWS V14.01,2013-02-24 12:18:00,
2013-02-24 04:23:00,33.6,33.1,29.12,SSW,202,0.0,0.0,98,0.00,,OVC055,0.00,VWS V14.01,2013-02-24 12:23:00,
2013-02-24 04:28:00,33.6,33.1,29.12,North,0,0.0,0.0,98,0.00,,OVC055,0.00,VWS V14.01,2013-02-24 12:28:00,
2013-02-24 04:30:00,33.3,32.8,29.11,ESE,112,1.3,1.3,98,0.00,,,0.00,VWS V14.01,2013-02-24 12:30:00,
2013-02-24 04:33:00,33.6,33.1,29.12,SSW,202,1.6,1.6,98,0.00,,OVC060,0.00,VWS V14.01,2013-02-24 12:33:00,
2013-02-24 04:38:00,33.6,33.1,29.12,ESE,112,0.0,0.0,98,0.00,,OVC060,0.00,VWS V14.01,2013-02-24 12:38:00,
2013-02-24 04:43:00,33.6,33.1,29.12,ESE,112,0.0,0.0,98,0.00,,OVC060,0.00,VWS V14.01,2013-02-24 12:43:00,
2013-02-24 04:48:00,33.6,33.1,29.12,ESE,112,0.0,0.0,98,0.00,,OVC060,0.00,VWS V14.01,2013-02-24 12:48:00,
2013-02-24 04:53:00,33.6,33.1,29.12,East,90,0.0,0.0,98,0.00,,OVC060,0.00,VWS V14.01,2013-02-24 12:53:00,
2013-02-24 04:58:00,33.6,33.1,29.12,South,180,0.0,0.0,98,0.00,,OVC060,0.00,VWS V14.01,2013-02-24 12:58:00,
2013-02-24 05:00:00,33.6,33.1,29.11,SE,135,0.0,0.0,98,0.00,,,0.00,VWS V14.01,2013-02-24 13:00:00,
2013-02-24 05:03:00,33.6,33.1,29.12,South,180,0.0,0.0,98,0.00,,OVC060,0.00,VWS V14.01,2013-02-24 13:03:00,
2013-02-24 05:08:00,33.6,33.1,29.12,South,180,0.0,0.0,98,0.00,,OVC060,0.00,VWS V14.01,2013-02-24 13:08:00,
2013-02-24 05:13:00,33.4,32.9,29.12,South,180,0.0,0.0,98,0.00,,OVC060,0.00,VWS V14.01,2013-02-24 13:13:00,
2013-02-24 05:18:00,33.3,32.8,29.12,SSE,158,0.0,0.0,98,0.00,,OVC060,0.00,VWS V14.01,2013-02-24 13:18:00,
2013-02-24 05:23:00,33.3,32.8,29.12,ENE,68,0.0,0.0,98,0.00,,OVC060,0.00,VWS V14.01,2013-02-24 13:23:00,
2013-02-24 05:28:00,33.3,32.8,29.12,ESE,112,0.0,0.0,98,0.00,,OVC060,0.00,VWS V14.01,2013-02-24 13:28:00,
2013-02-24 05:30:00,33.6,33.1,29.11,ESE,112,0.0,0.0,98,0.00,,,0.00,VWS V14.01,2013-02-24 13:30:00,
2013-02-24 05:33:00,33.4,32.9,29.12,ESE,112,0.0,0.0,98,0.00,,OVC060,0.00,VWS V14.01,2013-02-24 13:33:00,
2013-02-24 05:38:00,33.4,32.9,29.12,ESE,112,2.2,2.2,98,0.00,,OVC060,0.00,VWS V14.01,2013-02-24 13:38:00,
2013-02-24 05:43:00,33.4,32.9,29.12,ESE,112,1.3,1.3,98,0.00,,OVC060,0.00,VWS V14.01,2013-02-24 13:43:00,
2013-02-24 05:48:00,33.4,32.9,29.12,SE,135,0.0,0.0,98,0.00,,OVC060,0.00,VWS V14.01,2013-02-24 13:48:00,
2013-02-24 05:53:00,33.4,32.9,29.12,ESE,112,0.0,0.0,98,0.00,,OVC060,0.00,VWS V14.01,2013-02-24 13:53:00,
2013-02-24 05:58:00,33.6,33.1,29.12,NNW,338,0.0,0.0,98,0.00,,OVC060,0.00,VWS V14.01,2013-02-24 13:58:00,
2013-02-24 06:00:00,33.4,32.9,29.11,West,270,0.0,0.0,98,0.00,,,0.00,VWS V14.01,2013-02-24 14:00:00,
2013-02-24 06:03:00,33.6,33.1,29.12,SSE,158,0.0,0.0,98,0.00,,OVC050,0.00,VWS V14.01,2013-02-24 14:03:00,
2013-02-24 06:08:00,33.6,33.1,29.12,SSE,158,0.9,0.9,98,0.00,,OVC050,0.00,VWS V14.01,2013-02-24 14:08:00,
2013-02-24 06:13:00,33.6,33.1,29.12,East,90,0.9,0.9,98,0.00,,OVC050,0.00,VWS V14.01,2013-02-24 14:13:00,
2013-02-24 06:18:00,33.6,33.1,29.12,ESE,112,0.0,0.0,98,0.00,,OVC050,0.00,VWS V14.01,2013-02-24 14:18:00,
2013-02-24 06:23:00,33.6,33.1,29.12,ESE,112,0.0,0.0,98,0.00,,OVC050,0.00,VWS V14.01,2013-02-24 14:23:00,
2013-02-24 06:28:00,33.6,33.1,29.12,ESE,112,0.0,0.0,98,0.00,,OVC050,0.00,VWS V14.01,2013-02-24 14:28:00,
2013-02-24 06:30:00,33.6,33.1,29.11,West,270,0.0,0.0,98,0.00,,,0.00,VWS V14.01,2013-02-24 14:30:00,
2013-02-24 06:33:00,33.6,33.1,29.12,ESE,112,0.0,0.0,98,0.00,,OVC050,0.00,VWS V14.01,2013-02-24 14:33:00,
2013-02-24 06:38:00,33.6,33.1,29.12,ESE,112,0.0,0.0,98,0.00,,OVC050,0.00,VWS V14.01,2013-02-24 14:38:00,
2013-02-24 06:43:00,33.4,32.9,29.12,West,270,0.0,0.0,98,0.00,,OVC050,0.00,VWS V14.01,2013-02-24 14:43:00,
2013-02-24 06:48:00,33.6,33.1,29.12,West,270,0.0,0.0,98,0.00,,OVC050,0.00,VWS V14.01,2013-02-24 14:48:00,
2013-02-24 06:53:00,33.4,32.9,29.12,West,270,0.0,0.0,98,0.00,,OVC050,0.00,VWS V14.01,2013-02-24 14:53:00,
2013-02-24 06:58:00,33.4,32.9,29.12,West,270,0.0,0.0,98,0.00,,OVC050,0.00,VWS V14.01,2013-02-24 14:58:00,
2013-02-24 07:00:00,33.8,33.3,29.11,East,90,0.0,0.0,98,0.00,,,0.00,VWS V14.01,2013-02-24 15:00:00,
2013-02-24 07:03:00,33.4,32.9,29.12,West,270,0.0,0.0,98,0.00,,OVC050,0.00,VWS V14.01,2013-02-24 15:03:00,
2013-02-24 07:08:00,33.4,32.9,29.12,West,270,0.0,0.0,98,0.00,,OVC050,0.00,VWS V14.01,2013-02-24 15:08:00,
2013-02-24 07:13:00,33.6,33.1,29.12,West,270,0.0,0.0,98,0.00,,OVC050,0.00,VWS V14.01,2013-02-24 15:13:00,
2013-02-24 07:18:00,33.6,33.1,29.12,West,270,0.0,0.0,98,0.00,,OVC050,0.00,VWS V14.01,2013-02-24 15:18:00,
2013-02-24 07:23:00,33.6,33.1,29.12,West,270,0.0,0.0,98,0.00,,OVC050,0.00,VWS V14.01,2013-02-24 15:23:00,
2013-02-24 07:28:00,33.6,33.1,29.12,West,270,0.0,0.0,98,0.00,,OVC050,0.00,VWS V14.01,2013-02-24 15:28:00,
2013-02-24 07:30:00,34.5,34.0,29.11,North,0,0.0,0.0,98,0.00,,,0.00,VWS V14.01,2013-02-24 15:30:00,
2013-02-24 07:33:00,33.6,33.1,29.12,West,270,0.0,0.0,98,0.00,,OVC050,0.00,VWS V14.01,2013-02-24 15:33:00,
2013-02-24 07:38:00,33.6,33.1,29.12,WSW,248,0.0,0.0,98,0.00,,OVC050,0.00,VWS V14.01,2013-02-24 15:38:00,
2013-02-24 07:43:00,33.6,33.1,29.12,East,90,0.0,0.0,98,0.00,,OVC050,0.00,VWS V14.01,2013-02-24 15:43:00,
2013-02-24 07:48:00,33.6,33.1,29.12,ESE,112,0.0,0.0,98,0.00,,OVC050,0.00,VWS V14.01,2013-02-24 15:48:00,
2013-02-24 07:53:00,33.6,33.1,29.12,ENE,68,0.0,0.0,98,0.00,,OVC050,0.00,VWS V14.01,2013-02-24 15:53:00,
2013-02-24 07:58:00,33.6,33.1,29.12,East,90,0.0,0.0,98,0.00,,OVC050,0.00,VWS V14.01,2013-02-24 15:58:00,
2013-02-24 08:00:00,35.6,35.1,29.11,South,180,0.0,0.0,98,0.00,,,0.00,VWS V14.01,2013-02-24 16:00:00,
2013-02-24 08:03:00,33.8,33.3,29.12,East,90,0.0,0.0,98,0.00,,OVC060,0.00,VWS V14.01,2013-02-24 16:03:00,
2013-02-24 08:08:00,34.0,33.5,29.12,East,90,0.0,0.0,98,0.00,,OVC060,0.00,VWS V14.01,2013-02-24 16:08:00,
2013-02-24 08:13:00,34.0,33.5,29.12,ENE,68,0.0,0.0,98,0.00,,OVC060,0.00,VWS V14.01,2013-02-24 16:13:00,
2013-02-24 08:18:00,34.0,33.5,29.12,ENE,68,0.0,0.0,98,0.00,,OVC060,0.00,VWS V14.01,2013-02-24 16:18:00,
2013-02-24 08:23:00,34.3,33.8,29.12,North,0,0.0,0.0,98,0.00,,OVC060,0.00,VWS V14.01,2013-02-24 16:23:00,
2013-02-24 08:28:00,34.5,34.0,29.12,North,0,0.0,0.0,98,0.00,,OVC060,0.00,VWS V14.01,2013-02-24 16:28:00,
2013-02-24 08:30:00,36.7,36.2,29.11,ESE,112,0.0,0.0,98,0.00,,,0.00,VWS V14.01,2013-02-24 16:30:00,
2013-02-24 08:33:00,34.7,34.2,29.12,North,0,0.0,0.0,98,0.00,,OVC060,0.00,VWS V14.01,2013-02-24 16:33:00,
2013-02-24 08:38:00,34.9,34.4,29.12,North,0,0.0,0.0,98,0.00,,OVC060,0.00,VWS V14.01,2013-02-24 16:38:00,
2013-02-24 08:43:00,35.1,34.5,29.12,North,0,0.0,0.0,98,0.00,,OVC060,0.00,VWS V14.01,2013-02-24 16:43:00,
2013-02-24 08:48:00,35.2,34.7,29.12,North,0,0.0,0.0,98,0.00,,OVC060,0.00,VWS V14.01,2013-02-24 16:48:00,
2013-02-24 08:53:00,35.4,34.9,29.12,SE,135,0.0,0.0,98,0.00,,OVC060,0.00,VWS V14.01,2013-02-24 16:53:00,
2013-02-24 08:58:00,35.6,35.1,29.12,South,180,0.0,0.0,98,0.00,,OVC060,0.00,VWS V14.01,2013-02-24 16:58:00,
2013-02-24 09:00:00,37.6,37.1,29.11,SE,135,0.0,0.0,98,0.00,,,0.00,VWS V14.01,2013-02-24 17:00:00,
2013-02-24 09:03:00,35.8,35.3,29.12,SSW,202,1.6,1.6,98,0.00,,OVC070,0.00,VWS V14.01,2013-02-24 17:03:00,
2013-02-24 09:08:00,36.0,35.5,29.14,South,180,0.0,0.0,98,0.00,,OVC070,0.00,VWS V14.01,2013-02-24 17:08:00,
2013-02-24 09:13:00,36.0,35.5,29.14,South,180,0.0,0.0,98,0.00,,OVC070,0.00,VWS V14.01,2013-02-24 17:13:00,
2013-02-24 09:18:00,36.3,35.8,29.14,South,180,0.0,0.0,98,0.00,,OVC070,0.00,VWS V14.01,2013-02-24 17:18:00,
2013-02-24 09:23:00,36.3,35.8,29.12,ENE,68,0.0,0.0,98,0.00,,OVC070,0.00,VWS V14.01,2013-02-24 17:23:00,
2013-02-24 09:28:00,36.7,36.2,29.12,East,90,0.0,0.0,98,0.00,,OVC070,0.00,VWS V14.01,2013-02-24 17:28:00,
2013-02-24 09:30:00,39.0,38.5,29.11,SE,135,2.5,2.5,98,0.00,,,0.00,VWS V14.01,2013-02-24 17:30:00,
2013-02-24 09:33:00,36.9,36.3,29.12,ESE,112,0.0,0.0,98,0.00,,OVC070,0.00,VWS V14.01,2013-02-24 17:33:00,
2013-02-24 09:38:00,37.0,36.5,29.12,SSW,202,0.0,0.0,98,0.00,,OVC070,0.00,VWS V14.01,2013-02-24 17:38:00,
2013-02-24 09:43:00,37.2,36.7,29.12,SE,135,0.0,0.0,98,0.00,,OVC070,0.00,VWS V14.01,2013-02-24 17:43:00,
2013-02-24 09:48:00,37.2,36.7,29.12,East,90,0.0,0.0,98,0.00,,OVC070,0.00,VWS V14.01,2013-02-24 17:48:00,
2013-02-24 09:53:00,37.2,36.7,29.12,ESE,112,0.0,0.0,98,0.00,,OVC070,0.00,VWS V14.01,2013-02-24 17:53:00,
2013-02-24 09:58:00,37.4,36.9,29.12,SE,135,0.0,0.0,98,0.00,,OVC070,0.00,VWS V14.01,2013-02-24 17:58:00,
2013-02-24 10:00:00,41.5,38.3,29.11,SSW,202,1.1,1.1,88,0.00,,,0.00,VWS V14.01,2013-02-24 18:00:00,
2013-02-24 10:03:00,37.6,37.1,29.12,East,90,1.6,1.6,98,0.00,,BKN044,0.00,VWS V14.01,2013-02-24 18:03:00,
2013-02-24 10:08:00,37.6,37.1,29.12,SE,135,1.3,1.3,98,0.00,,BKN044,0.00,VWS V14.01,2013-02-24 18:08:00,
2013-02-24 10:13:00,38.1,37.6,29.12,South,180,0.0,0.0,98,0.00,,BKN044,0.00,VWS V14.01,2013-02-24 18:13:00,
2013-02-24 10:18:00,38.7,38.2,29.12,SE,135,0.0,0.0,98,0.00,,BKN044,0.00,VWS V14.01,2013-02-24 18:18:00,
2013-02-24 10:23:00,38.7,38.2,29.12,NNE,22,0.0,0.0,98,0.00,,BKN044,0.00,VWS V14.01,2013-02-24 18:23:00,
2013-02-24 10:28:00,39.0,38.5,29.12,East,90,0.0,0.0,98,0.00,,BKN044,0.00,VWS V14.01,2013-02-24 18:28:00,
2013-02-24 10:30:00,45.0,38.2,29.11,NE,45,1.1,1.1,77,0.00,,,0.00,VWS V14.01,2013-02-24 18:30:00,
2013-02-24 10:33:00,39.0,38.2,29.12,East,90,1.1,1.1,97,0.00,,BKN044,0.00,VWS V14.01,2013-02-24 18:33:00,
2013-02-24 10:38:00,39.7,39.0,29.12,SE,135,0.0,0.0,97,0.00,,BKN044,0.00,VWS V14.01,2013-02-24 18:38:00,
2013-02-24 10:43:00,39.7,38.7,29.12,East,90,2.9,2.9,96,0.00,,BKN044,0.00,VWS V14.01,2013-02-24 18:43:00,
2013-02-24 10:48:00,39.9,37.5,29.12,ESE,112,1.1,1.1,91,0.00,,BKN044,0.00,VWS V14.01,2013-02-24 18:48:00,
2013-02-24 10:53:00,40.8,38.7,29.12,ESE,112,1.6,1.6,92,0.00,,BKN044,0.00,VWS V14.01,2013-02-24 18:53:00,
2013-02-24 10:58:00,41.4,38.1,29.12,SSW,202,0.0,0.0,88,0.00,,BKN044,0.00,VWS V14.01,2013-02-24 18:58:00,
2013-02-24 11:00:00,45.1,33.3,29.09,SE,135,3.6,3.6,63,0.00,,,0.00,VWS V14.01,2013-02-24 19:00:00,
2013-02-24 11:03:00,42.4,39.7,29.12,SSW,202,1.6,1.6,90,0.00,,OVC049,0.00,VWS V14.01,2013-02-24 19:03:00,
2013-02-24 11:08:00,43.3,40.6,29.12,WNW,292,2.5,2.5,90,0.00,,OVC049,0.00,VWS V14.01,2013-02-24 19:08:00,
2013-02-24 11:13:00,43.5,39.3,29.12,NNW,338,1.1,1.1,85,0.00,,OVC049,0.00,VWS V14.01,2013-02-24 19:13:00,
2013-02-24 11:18:00,43.9,38.8,29.12,ENE,68,3.8,3.8,82,0.00,,OVC049,0.00,VWS V14.01,2013-02-24 19:18:00,
2013-02-24 11:23:00,44.1,37.0,29.12,SE,135,2.7,2.7,76,0.00,,OVC049,0.00,VWS V14.01,2013-02-24 19:23:00,
2013-02-24 11:28:00,44.8,38.0,29.12,ESE,112,3.1,3.1,77,0.00,,OVC049,0.00,VWS V14.01,2013-02-24 19:28:00,
2013-02-24 11:30:00,45.9,37.0,29.09,WSW,248,0.0,0.0,71,0.00,,,0.00,VWS V14.01,2013-02-24 19:30:00,
2013-02-24 11:33:00,45.0,38.5,29.12,NNE,22,1.1,1.1,78,0.00,,OVC049,0.00,VWS V14.01,2013-02-24 19:33:00,
2013-02-24 11:38:00,46.0,40.5,29.09,ESE,112,1.3,1.3,81,0.00,,OVC049,0.00,VWS V14.01,2013-02-24 19:38:00,
2013-02-24 11:43:00,46.0,37.9,29.09,ESE,112,3.6,3.6,73,0.00,,OVC049,0.00,VWS V14.01,2013-02-24 19:43:00,
2013-02-24 11:47:00,45.9,37.4,29.09,East,90,1.1,1.1,72,0.00,,OVC049,0.00,VWS V14.01,2013-02-24 19:47:00,
2013-02-24 11:52:00,45.5,35.9,29.09,South,180,2.7,2.7,69,0.00,,OVC049,0.00,VWS V14.01,2013-02-24 19:52:00,
2013-02-24 11:57:00,45.5,34.4,29.09,ENE,68,2.7,2.7,65,0.00,,OVC049,0.00,VWS V14.01,2013-02-24 19:57:00,
2013-02-24 12:00:00,46.8,34.4,29.06,East,90,2.5,2.5,62,0.00,,,0.00,VWS V14.01,2013-02-24 20:00:00,
2013-02-24 12:02:00,45.3,35.8,29.09,SSE,158,1.6,1.6,69,0.00,,SCT050,0.00,VWS V14.01,2013-02-24 20:02:00,
2013-02-24 12:07:00,45.3,35.0,29.09,East,90,1.6,1.6,67,0.00,,SCT050,0.00,VWS V14.01,2013-02-24 20:07:00,
2013-02-24 12:12:00,45.3,35.8,29.09,East,90,2.5,2.5,69,0.00,,SCT050,0.00,VWS V14.01,2013-02-24 20:12:00,
2013-02-24 12:17:00,45.5,35.9,29.09,SE,135,2.9,2.9,69,0.00,,SCT050,0.00,VWS V14.01,2013-02-24 20:17:00,
2013-02-24 12:22:00,45.3,35.8,29.09,ESE,112,0.0,0.0,69,0.00,,SCT050,0.00,VWS V14.01,2013-02-24 20:22:00,
2013-02-24 12:27:00,45.5,36.3,29.09,NNE,22,2.7,2.7,70,0.00,,SCT050,0.00,VWS V14.01,2013-02-24 20:27:00,
2013-02-24 12:30:00,47.3,35.4,29.06,SSW,202,2.5,2.5,63,0.00,,,0.00,VWS V14.01,2013-02-24 20:30:00,
2013-02-24 12:32:00,46.0,37.5,29.09,ESE,112,2.0,2.0,72,0.00,,SCT050,0.00,VWS V14.01,2013-02-24 20:32:00,
2013-02-24 12:37:00,46.0,36.8,29.09,SW,225,0.0,0.0,70,0.00,,SCT050,0.00,VWS V14.01,2013-02-24 20:37:00,
2013-02-24 12:42:00,46.4,36.4,29.09,SSE,158,0.9,0.9,68,0.00,,SCT050,0.00,VWS V14.01,2013-02-24 20:42:00,
2013-02-24 12:47:00,46.6,36.2,29.09,ENE,68,3.1,3.1,67,0.00,,SCT050,0.00,VWS V14.01,2013-02-24 20:47:00,
2013-02-24 12:52:00,46.9,35.8,29.06,SSW,202,0.0,0.0,65,0.00,,SCT050,0.00,VWS V14.01,2013-02-24 20:52:00,
2013-02-24 12:57:00,46.9,34.6,29.06,ESE,112,3.6,3.6,62,0.00,,SCT050,0.00,VWS V14.01,2013-02-24 20:57:00,
2013-02-24 13:00:00,47.8,34.2,29.06,ESE,112,0.0,0.0,59,0.00,,,0.00,VWS V14.01,2013-02-24 21:00:00,
2013-02-24 13:02:00,46.8,34.8,29.06,SE,135,1.3,1.3,63,0.00,,SCT050,0.00,VWS V14.01,2013-02-24 21:02:00,
2013-02-24 13:07:00,46.8,34.8,29.06,SSE,158,0.0,0.0,63,0.00,,SCT050,0.00,VWS V14.01,2013-02-24 21:07:00,
2013-02-24 13:12:00,46.8,34.8,29.06,East,90,0.9,0.9,63,0.00,,SCT050,0.00,VWS V14.01,2013-02-24 21:12:00,
2013-02-24 13:17:00,46.8,34.8,29.06,SE,135,2.2,2.2,63,0.00,,SCT050,0.00,VWS V14.01,2013-02-24 21:17:00,
2013-02-24 13:22:00,46.9,35.4,29.06,WSW,248,1.1,1.1,64,0.00,,SCT050,0.00,VWS V14.01,2013-02-24 21:22:00,
2013-02-24 13:27:00,47.1,35.2,29.06,SSW,202,1.3,1.3,63,0.00,,SCT050,0.00,VWS V14.01,2013-02-24 21:27:00,
2013-02-24 13:30:00,48.2,33.3,29.03,SE,135,1.1,1.1,56,0.00,,,0.00,VWS V14.01,2013-02-24 21:30:00,
2013-02-24 13:32:00,47.5,33.9,29.06,SW,225,2.5,2.5,59,0.00,,FEW070,0.00,VWS V14.01,2013-02-24 21:32:00,
2013-02-24 13:37:00,47.5,33.9,29.06,NNE,22,0.0,0.0,59,0.00,,FEW070,0.00,VWS V14.01,2013-02-24 21:37:00,
2013-02-24 13:42:00,47.3,33.7,29.06,NNW,338,2.7,2.7,59,0.00,,FEW070,0.00,VWS V14.01,2013-02-24 21:42:00,
2013-02-24 13:47:00,47.3,32.8,29.06,WNW,292,1.6,1.6,57,0.00,,FEW070,0.00,VWS V14.01,2013-02-24 21:47:00,
2013-02-24 13:52:00,47.8,34.2,29.06,SE,135,1.1,1.1,59,0.00,,FEW070,0.00,VWS V14.01,2013-02-24 21:52:00,
2013-02-24 13:57:00,47.8,34.2,29.06,NNW,338,1.6,1.6,59,0.00,,FEW070,0.00,VWS V14.01,2013-02-24 21:57:00,
2013-02-24 14:00:00,46.8,31.9,29.03,ESE,112,1.6,1.6,56,0.00,,,0.00,VWS V14.01,2013-02-24 22:00:00,
2013-02-24 14:02:00,48.0,32.6,29.06,ESE,112,3.8,3.8,55,0.00,,,0.00,VWS V14.01,2013-02-24 22:02:00,
2013-02-24 14:07:00,47.5,32.1,29.06,ENE,68,1.1,1.1,55,0.00,,,0.00,VWS V14.01,2013-02-24 22:07:00,
2013-02-24 14:12:00,47.8,33.4,29.06,SSW,202,1.3,1.3,57,0.00,,,0.00,VWS V14.01,2013-02-24 22:12:00,
2013-02-24 14:17:00,48.4,34.3,29.06,ESE,112,1.3,1.3,58,0.00,,,0.00,VWS V14.01,2013-02-24 22:17:00,
2013-02-24 14:22:00,48.2,33.3,29.03,West,270,0.0,0.0,56,0.00,,,0.00,VWS V14.01,2013-02-24 22:22:00,
2013-02-24 14:27:00,48.2,32.8,29.03,SSE,158,0.9,0.9,55,0.00,,,0.00,VWS V14.01,2013-02-24 22:27:00,
2013-02-24 14:30:00,45.1,33.3,29.03,SSE,158,3.8,3.8,63,0.00,,,0.00,VWS V14.01,2013-02-24 22:30:00,
2013-02-24 14:32:00,48.0,33.5,29.03,NW,315,1.3,1.3,57,0.00,,,0.00,VWS V14.01,2013-02-24 22:32:00,
2013-02-24 14:37:00,47.5,32.6,29.03,WSW,248,0.0,0.0,56,0.00,,,0.00,VWS V14.01,2013-02-24 22:37:00,
2013-02-24 14:42:00,47.7,32.3,29.03,SW,225,0.0,0.0,55,0.00,,,0.00,VWS V14.01,2013-02-24 22:42:00,
2013-02-24 14:47:00,47.5,32.6,29.03,NNW,338,1.1,1.1,56,0.00,,,0.00,VWS V14.01,2013-02-24 22:47:00,
2013-02-24 14:52:00,47.3,32.4,29.03,ENE,68,1.3,1.3,56,0.00,,,0.00,VWS V14.01,2013-02-24 22:52:00,
2013-02-24 14:57:00,46.8,31.5,29.03,WNW,292,0.9,0.9,55,0.00,,,0.00,VWS V14.01,2013-02-24 22:57:00,
2013-02-24 15:00:00,44.2,31.7,29.00,ENE,68,3.4,3.4,61,0.00,,,0.00,VWS V14.01,2013-02-24 23:00:00,
2013-02-24 15:02:00,46.6,32.2,29.03,East,90,3.1,3.1,57,0.00,,BKN070,0.00,VWS V14.01,2013-02-24 23:02:00,
2013-02-24 15:07:00,45.7,31.8,29.03,SE,135,2.2,2.2,58,0.00,,BKN070,0.00,VWS V14.01,2013-02-24 23:07:00,
2013-02-24 15:12:00,45.5,32.0,29.03,SE,135,2.0,2.0,59,0.00,,BKN070,0.00,VWS V14.01,2013-02-24 23:12:00,
2013-02-24 15:17:00,45.5,32.4,29.03,ENE,68,2.9,2.9,60,0.00,,BKN070,0.00,VWS V14.01,2013-02-24 23:17:00,
2013-02-24 15:22:00,45.1,32.5,29.03,NE,45,2.7,2.7,61,0.00,,BKN070,0.00,VWS V14.01,2013-02-24 23:22:00,
2013-02-24 15:27:00,45.3,34.3,29.03,ENE,68,2.5,2.5,65,0.00,,BKN070,0.00,VWS V14.01,2013-02-24 23:27:00,
2013-02-24 15:30:00,44.4,34.9,29.00,SSE,158,0.0,0.0,69,0.00,,,0.00,VWS V14.01,2013-02-24 23:30:00,
2013-02-24 15:32:00,45.0,33.1,29.03,ESE,112,4.3,4.3,63,0.00,,BKN070,0.00,VWS V14.01,2013-02-24 23:32:00,
2013-02-24 15:37:00,44.8,33.0,29.03,SSE,158,0.9,0.9,63,0.00,,BKN070,0.00,VWS V14.01,2013-02-24 23:37:00,
2013-02-24 15:42:00,44.8,32.6,29.00,NE,45,1.3,1.3,62,0.00,,BKN070,0.00,VWS V14.01,2013-02-24 23:42:00,
2013-02-24 15:47:00,44.6,32.0,29.00,SE,135,2.2,2.2,61,0.00,,BKN070,0.00,VWS V14.01,2013-02-24 23:47:00,
2013-02-24 15:52:00,44.4,31.8,29.00,ESE,112,2.5,2.5,61,0.00,,BKN070,0.00,VWS V14.01,2013-02-24 23:52:00,
2013-02-24 15:57:00,44.4,32.2,29.00,NE,45,2.0,2.0,62,0.00,,BKN070,0.00,VWS V14.01,2013-02-24 23:57:00,
2013-02-24 16:00:00,42.8,35.8,28.97,ESE,112,0.0,0.0,76,0.00,,,0.00,VWS V14.01,2013-02-25 00:00:00,
2013-02-24 16:02:00,44.2,31.7,29.00,NE,45,2.0,2.0,61,0.00,,,0.00,VWS V14.01,2013-02-25 00:02:00,
2013-02-24 16:07:00,44.2,31.7,29.00,ENE,68,3.1,3.1,61,0.00,,,0.00,VWS V14.01,2013-02-25 00:07:00,
2013-02-24 16:12:00,44.1,31.5,29.00,East,90,2.7,2.7,61,0.00,,,0.00,VWS V14.01,2013-02-25 00:12:00,
2013-02-24 16:17:00,44.1,31.5,29.00,NE,45,1.3,1.3,61,0.00,,,0.00,VWS V14.01,2013-02-25 00:17:00,
2013-02-24 16:22:00,44.2,32.5,29.00,SSE,158,0.0,0.0,63,0.00,,,0.00,VWS V14.01,2013-02-25 00:22:00,
2013-02-24 16:27:00,44.2,34.4,29.00,SSE,158,0.0,0.0,68,0.00,,,0.00,VWS V14.01,2013-02-25 00:27:00,
2013-02-24 16:30:00,41.5,36.8,28.94,SSW,202,1.1,1.1,83,0.00,,,0.00,VWS V14.01,2013-02-25 00:30:00,
2013-02-24 16:32:00,44.2,34.7,29.00,SSE,158,0.0,0.0,69,0.00,,,0.00,VWS V14.01,2013-02-25 00:32:00,
2013-02-24 16:37:00,44.1,34.9,29.00,North,0,1.6,1.6,70,0.00,,,0.00,VWS V14.01,2013-02-25 00:37:00,
2013-02-24 16:42:00,43.7,34.6,28.97,NNW,338,0.0,0.0,70,0.00,,,0.00,VWS V14.01,2013-02-25 00:42:00,
2013-02-24 16:47:00,43.5,35.5,28.97,NE,45,2.5,2.5,73,0.00,,,0.00,VWS V14.01,2013-02-25 00:47:00,
2013-02-24 16:52:00,43.2,35.8,28.97,East,90,1.6,1.6,75,0.00,,,0.00,VWS V14.01,2013-02-25 00:52:00,
2013-02-24 16:57:00,42.8,35.8,28.97,SE,135,1.3,1.3,76,0.00,,,0.00,VWS V14.01,2013-02-25 00:57:00,
2013-02-24 17:00:00,38.7,34.8,28.94,WSW,248,0.9,0.9,86,0.00,,,0.00,VWS V14.01,2013-02-25 01:00:00,
2013-02-24 17:02:00,42.8,36.1,28.97,SSE,158,0.0,0.0,77,0.00,,,0.00,VWS V14.01,2013-02-25 01:02:00,
2013-02-24 17:07:00,42.6,36.2,28.97,SSE,158,0.0,0.0,78,0.00,,,0.00,VWS V14.01,2013-02-25 01:07:00,
2013-02-24 17:12:00,42.3,36.5,28.97,West,270,0.0,0.0,80,0.00,,,0.00,VWS V14.01,2013-02-25 01:12:00,
2013-02-24 17:17:00,42.3,37.2,28.97,SSW,202,2.0,2.0,82,0.00,,,0.00,VWS V14.01,2013-02-25 01:17:00,
2013-02-24 17:22:00,41.9,37.1,28.97,SSW,202,0.0,0.0,83,0.00,,,0.00,VWS V14.01,2013-02-25 01:22:00,
2013-02-24 17:27:00,41.7,36.6,28.94,WNW,292,0.0,0.0,82,0.00,,,0.00,VWS V14.01,2013-02-25 01:27:00,
2013-02-24 17:30:00,38.1,35.2,28.94,SSW,202,0.9,0.9,89,0.00,,,0.00,VWS V14.01,2013-02-25 01:30:00,
2013-02-24 17:32:00,41.4,36.6,28.94,SSW,202,0.0,0.0,83,0.00,,,0.00,VWS V14.01,2013-02-25 01:32:00,
2013-02-24 17:37:00,40.8,36.4,28.94,SSW,202,0.0,0.0,84,0.00,,,0.00,VWS V14.01,2013-02-25 01:37:00,
2013-02-24 17:42:00,40.3,35.8,28.94,SSW,202,0.0,0.0,84,0.00,,,0.00,VWS V14.01,2013-02-25 01:42:00,
2013-02-24 17:47:00,39.7,35.9,28.94,South,180,0.0,0.0,86,0.00,,,0.00,VWS V14.01,2013-02-25 01:47:00,
2013-02-24 17:52:00,39.2,35.1,28.94,SSW,202,0.0,0.0,85,0.00,,,0.00,VWS V14.01,2013-02-25 01:52:00,
2013-02-24 17:57:00,38.8,35.0,28.94,SSW,202,1.1,1.1,86,0.00,,,0.00,VWS V14.01,2013-02-25 01:57:00,
2013-02-24 18:00:00,37.8,35.7,28.94,SSW,202,0.9,0.9,92,0.00,,,0.00,VWS V14.01,2013-02-25 02:00:00,
2013-02-24 18:01:00,38.7,35.1,28.94,South,180,0.9,0.9,87,0.00,,,0.00,VWS V14.01,2013-02-25 02:01:00,
2013-02-24 18:06:00,38.5,35.0,28.94,SSW,202,1.6,1.6,87,0.00,,,0.00,VWS V14.01,2013-02-25 02:06:00,
2013-02-24 18:11:00,38.5,35.2,28.94,NW,315,0.0,0.0,88,0.00,,,0.00,VWS V14.01,2013-02-25 02:11:00,
2013-02-24 18:16:00,38.3,35.1,28.94,WNW,292,2.2,2.2,88,0.00,,,0.00,VWS V14.01,2013-02-25 02:16:00,
2013-02-24 18:21:00,38.3,35.3,28.94,SSW,202,0.0,0.0,89,0.00,,,0.00,VWS V14.01,2013-02-25 02:21:00,
2013-02-24 18:26:00,38.1,35.2,28.94,WSW,248,0.0,0.0,89,0.00,,,0.00,VWS V14.01,2013-02-25 02:26:00,
2013-02-24 18:30:00,37.4,35.6,28.94,SSW,202,0.0,0.0,93,0.00,,,0.00,VWS V14.01,2013-02-25 02:30:00,
2013-02-24 18:31:00,38.1,35.2,28.94,WNW,292,0.0,0.0,89,0.00,,OVC036,0.00,VWS V14.01,2013-02-25 02:31:00,
2013-02-24 18:36:00,38.1,35.5,28.94,NW,315,0.0,0.0,90,0.00,,OVC036,0.00,VWS V14.01,2013-02-25 02:36:00,
2013-02-24 18:41:00,37.9,35.3,28.94,SSW,202,1.1,1.1,90,0.00,,OVC036,0.00,VWS V14.01,2013-02-25 02:41:00,
2013-02-24 18:46:00,37.8,35.4,28.94,ESE,112,0.0,0.0,91,0.00,,OVC036,0.00,VWS V14.01,2013-02-25 02:46:00,
2013-02-24 18:51:00,37.8,35.4,28.94,SSW,202,0.0,0.0,91,0.00,,OVC036,0.00,VWS V14.01,2013-02-25 02:51:00,
2013-02-24 18:56:00,37.8,35.4,28.94,West,270,0.0,0.0,91,0.00,,OVC036,0.00,VWS V14.01,2013-02-25 02:56:00,
2013-02-24 19:00:00,37.2,35.9,28.91,West,270,0.0,0.0,95,0.00,,,0.00,VWS V14.01,2013-02-25 03:00:00,
2013-02-24 19:01:00,37.8,35.7,28.94,SSW,202,0.9,0.9,92,0.00,,OVC036,0.00,VWS V14.01,2013-02-25 03:01:00,
2013-02-24 19:06:00,37.6,35.5,28.94,SSW,202,1.1,1.1,92,0.00,,OVC036,0.00,VWS V14.01,2013-02-25 03:06:00,
2013-02-24 19:11:00,37.6,35.5,28.94,WSW,248,1.3,1.3,92,0.00,,OVC036,0.00,VWS V14.01,2013-02-25 03:11:00,
2013-02-24 19:16:00,37.6,35.7,28.94,SSW,202,0.0,0.0,93,0.00,,OVC036,0.00,VWS V14.01,2013-02-25 03:16:00,
2013-02-24 19:21:00,37.4,35.6,28.94,SW,225,2.5,2.5,93,0.00,,OVC036,0.00,VWS V14.01,2013-02-25 03:21:00,
2013-02-24 19:26:00,37.4,35.6,28.94,NW,315,2.0,2.0,93,0.00,,OVC036,0.00,VWS V14.01,2013-02-25 03:26:00,
2013-02-24 19:30:00,37.0,35.7,28.91,SSE,158,0.0,0.0,95,0.00,,,0.00,VWS V14.01,2013-02-25 03:30:00,
2013-02-24 19:31:00,37.4,35.6,28.94,West,270,1.6,1.6,93,0.00,,OVC036,0.00,VWS V14.01,2013-02-25 03:31:00,
2013-02-24 19:36:00,37.4,35.8,28.94,SSE,158,0.9,0.9,94,0.00,,OVC036,0.00,VWS V14.01,2013-02-25 03:36:00,
2013-02-24 19:41:00,37.2,35.7,28.91,SSE,158,1.3,1.3,94,0.00,,OVC036,0.00,VWS V14.01,2013-02-25 03:41:00,
2013-02-24 19:46:00,37.2,35.7,28.91,SSW,202,1.3,1.3,94,0.00,,OVC036,0.00,VWS V14.01,2013-02-25 03:46:00,
2013-02-24 19:51:00,37.2,35.9,28.91,SE,135,0.0,0.0,95,0.00,,OVC036,0.00,VWS V14.01,2013-02-25 03:51:00,
2013-02-24 19:56:00,37.2,35.9,28.91,South,180,1.6,1.6,95,0.00,,OVC036,0.00,VWS V14.01,2013-02-25 03:56:00,
2013-02-24 20:00:00,36.7,35.4,28.91,SE,135,2.0,2.0,95,0.00,,,0.00,VWS V14.01,2013-02-25 04:00:00,
2013-02-24 20:01:00,37.2,35.9,28.91,West,270,1.3,1.3,95,0.00,,OVC050,0.00,VWS V14.01,2013-02-25 04:01:00,
2013-02-24 20:06:00,37.2,35.9,28.91,SSE,158,0.0,0.0,95,0.00,,OVC050,0.00,VWS V14.01,2013-02-25 04:06:00,
2013-02-24 20:11:00,37.0,35.7,28.91,SSE,158,1.3,1.3,95,0.00,,OVC050,0.00,VWS V14.01,2013-02-25 04:11:00,
2013-02-24 20:16:00,37.0,35.7,28.91,SSW,202,0.0,0.0,95,0.00,,OVC050,0.00,VWS V14.01,2013-02-25 04:16:00,
2013-02-24 20:21:00,37.0,35.7,28.91,North,0,0.0,0.0,95,0.00,,OVC050,0.00,VWS V14.01,2013-02-25 04:21:00,
2013-02-24 20:26:00,37.0,35.7,28.91,West,270,1.6,1.6,95,0.00,,OVC050,0.00,VWS V14.01,2013-02-25 04:26:00,
2013-02-24 20:30:00,36.7,35.7,28.88,NNW,338,1.3,1.3,96,0.00,,,0.00,VWS V14.01,2013-02-25 04:30:00,
2013-02-24 20:31:00,37.0,35.7,28.91,SSE,158,0.0,0.0,95,0.00,,OVC050,0.00,VWS V14.01,2013-02-25 04:31:00,
2013-02-24 20:36:00,36.9,35.6,28.91,NNE,22,0.0,0.0,95,0.00,,OVC050,0.00,VWS V14.01,2013-02-25 04:36:00,
2013-02-24 20:41:00,36.9,35.6,28.91,SSW,202,1.1,1.1,95,0.00,,OVC050,0.00,VWS V14.01,2013-02-25 04:41:00,
2013-02-24 20:46:00,36.9,35.6,28.91,SE,135,0.0,0.0,95,0.00,,OVC050,0.00,VWS V14.01,2013-02-25 04:46:00,
2013-02-24 20:51:00,36.7,35.4,28.91,ESE,112,0.0,0.0,95,0.00,,OVC050,0.00,VWS V14.01,2013-02-25 04:51:00,
2013-02-24 20:56:00,36.7,35.4,28.91,SSE,158,1.1,1.1,95,0.00,,OVC050,0.00,VWS V14.01,2013-02-25 04:56:00,
2013-02-24 21:00:00,36.7,35.4,28.91,SE,135,2.0,2.0,95,0.00,,OVC050,0.00,VWS V14.01,2013-02-25 05:00:00,
2013-02-24 21:05:00,36.5,35.2,28.91,SSE,158,0.0,0.0,95,0.00,,OVC048,0.00,VWS V14.01,2013-02-25 05:05:00,
2013-02-24 21:10:00,36.5,35.2,28.88,WNW,292,1.1,1.1,95,0.00,,OVC048,0.00,VWS V14.01,2013-02-25 05:10:00,
2013-02-24 21:15:00,36.5,35.2,28.88,SSW,202,0.0,0.0,95,0.00,,OVC048,0.00,VWS V14.01,2013-02-25 05:15:00,
2013-02-24 21:20:00,36.3,35.0,28.88,South,180,0.0,0.0,95,0.00,,OVC048,0.00,VWS V14.01,2013-02-25 05:20:00,
2013-02-24 21:25:00,36.5,35.5,28.88,South,180,0.9,0.9,96,0.00,,OVC048,0.00,VWS V14.01,2013-02-25 05:25:00,
2013-02-24 21:30:00,36.7,35.7,28.88,North,0,1.3,1.3,96,0.00,,OVC048,0.00,VWS V14.01,2013-02-25 05:30:00,
2013-02-24 21:35:00,36.7,35.7,28.88,ENE,68,1.1,1.1,96,0.00,,OVC048,0.00,VWS V14.01,2013-02-25 05:35:00,
2013-02-24 21:40:00,36.7,35.7,28.88,NE,45,0.0,0.0,96,0.00,,OVC048,0.00,VWS V14.01,2013-02-25 05:40:00,
2013-02-24 21:45:00,36.5,35.5,28.88,SW,225,0.9,0.9,96,0.00,,OVC048,0.00,VWS V14.01,2013-02-25 05:45:00,
2013-02-24 21:50:00,36.3,35.0,28.88,ESE,112,0.0,0.0,95,0.00,,OVC048,0.00,VWS V14.01,2013-02-25 05:50:00,
2013-02-24 21:55:00,36.3,35.3,28.88,South,180,0.0,0.0,96,0.00,,OVC048,0.00,VWS V14.01,2013-02-25 05:55:00,
2013-02-24 22:00:00,36.3,35.3,28.88,SE,135,0.0,0.0,96,0.00,,OVC048,0.00,VWS V14.01,2013-02-25 06:00:00,
2013-02-24 22:05:00,36.1,35.1,28.88,East,90,0.0,0.0,96,0.00,,OVC050,0.00,VWS V14.01,2013-02-25 06:05:00,
2013-02-24 22:10:00,36.1,35.1,28.85,NE,45,0.0,0.0,96,0.00,,OVC050,0.00,VWS V14.01,2013-02-25 06:10:00,
2013-02-24 22:15:00,36.1,35.1,28.85,ESE,112,0.0,0.0,96,0.00,,OVC050,0.00,VWS V14.01,2013-02-25 06:15:00,
2013-02-24 22:20:00,36.1,35.1,28.85,ESE,112,0.0,0.0,96,0.00,,OVC050,0.00,VWS V14.01,2013-02-25 06:20:00,
2013-02-24 22:25:00,36.1,35.1,28.85,SW,225,0.0,0.0,96,0.00,,OVC050,0.00,VWS V14.01,2013-02-25 06:25:00,
2013-02-24 22:30:00,36.1,35.1,28.85,East,90,0.0,0.0,96,0.00,,OVC050,0.00,VWS V14.01,2013-02-25 06:30:00,
2013-02-24 22:35:00,36.1,35.1,28.85,ESE,112,1.6,1.6,96,0.00,,OVC050,0.00,VWS V14.01,2013-02-25 06:35:00,
2013-02-24 22:40:00,36.0,34.9,28.85,SSE,158,0.0,0.0,96,0.00,,OVC050,0.00,VWS V14.01,2013-02-25 06:40:00,
2013-02-24 22:45:00,36.1,35.1,28.85,SE,135,0.0,0.0,96,0.00,,OVC050,0.00,VWS V14.01,2013-02-25 06:45:00,
2013-02-24 22:50:00,36.1,35.1,28.85,WNW,292,0.0,0.0,96,0.00,,OVC050,0.00,VWS V14.01,2013-02-25 06:50:00,
2013-02-24 22:55:00,36.1,35.1,28.85,SSW,202,0.0,0.0,96,0.00,,OVC050,0.00,VWS V14.01,2013-02-25 06:55:00,
2013-02-24 23:00:00,36.1,35.4,28.85,ESE,112,0.0,0.0,97,0.00,,OVC050,0.00,VWS V14.01,2013-02-25 07:00:00,
2013-02-24 23:05:00,36.0,35.2,28.85,SE,135,2.0,2.0,97,0.00,,OVC055,0.00,VWS V14.01,2013-02-25 07:05:00,
2013-02-24 23:09:00,36.0,35.2,28.82,WSW,248,0.0,0.0,97,0.00,,OVC055,0.00,VWS V14.01,2013-02-25 07:09:00,
2013-02-24 23:14:00,36.0,35.2,28.82,SSE,158,0.0,0.0,97,0.00,,OVC055,0.00,VWS V14.01,2013-02-25 07:14:00,
2013-02-24 23:19:00,36.0,35.2,28.82,East,90,0.0,0.0,97,0.00,,OVC055,0.00,VWS V14.01,2013-02-25 07:19:00,
2013-02-24 23:24:00,36.0,35.2,28.82,WSW,248,0.0,0.0,97,0.00,,OVC055,0.00,VWS V14.01,2013-02-25 07:24:00,
2013-02-24 23:29:00,36.0,35.2,28.82,East,90,1.6,1.6,97,0.00,,OVC055,0.00,VWS V14.01,2013-02-25 07:29:00,
2013-02-24 23:30:00,36.1,35.6,28.79,West,270,1.3,1.3,98,0.05,,,0.00,VWS V14.01,2013-02-25 07:30:00,
2013-02-24 23:34:00,35.8,35.0,28.82,WSW,248,0.0,0.0,97,0.00,,OVC055,0.00,VWS V14.01,2013-02-25 07:34:00,
2013-02-24 23:39:00,36.0,35.2,28.82,South,180,0.9,0.9,97,0.00,,OVC055,0.00,VWS V14.01,2013-02-25 07:39:00,
2013-02-24 23:44:00,36.0,35.2,28.82,SSW,202,0.0,0.0,97,0.05,,OVC055,0.05,VWS V14.01,2013-02-25 07:44:00,
2013-02-24 23:49:00,36.0,35.2,28.82,WNW,292,1.6,1.6,97,0.05,,OVC055,0.05,VWS V14.01,2013-02-25 07:49:00,
2013-02-24 23:54:00,36.1,35.4,28.82,South,180,1.1,1.1,97,0.05,,OVC055,0.05,VWS V14.01,2013-02-25 07:54:00,
2013-02-24 23:59:00,36.0,35.5,28.82,WNW,292,2.0,2.0,98,0.05,,OVC055,0.05,VWS V14.01,2013-02-25 07:59:00,